sensor_id;sensor_type;location;lat;lon;timestamp;temperature;humidity
11597;DHT22;5854;48.072;16.286;2023-10-19T00:01:04;9.30;56.90
11597;DHT22;5854;48.072;16.286;2023-10-19T00:03:49;9.30;57.70
11597;DHT22;5854;48.072;16.286;2023-10-19T00:06:30;9.40;57.20
11597;DHT22;5854;48.072;16.286;2023-10-19T00:09:02;9.20;57.30
11597;DHT22;5854;48.072;16.286;2023-10-19T00:11:37;9.00;58.10
11597;DHT22;5854;48.072;16.286;2023-10-19T00:14:18;9.10;58.60
11597;DHT22;5854;48.072;16.286;2023-10-19T00:16:52;9.20;58.30
11597;DHT22;5854;48.072;16.286;2023-10-19T00:19:34;8.90;61.00
11597;DHT22;5854;48.072;16.286;2023-10-19T00:22:28;8.90;60.20
11597;DHT22;5854;48.072;16.286;2023-10-19T00:24:57;9.20;59.10
11597;DHT22;5854;48.072;16.286;2023-10-19T00:27:30;9.00;62.00
11597;DHT22;5854;48.072;16.286;2023-10-19T00:30:07;8.90;61.70
11597;DHT22;5854;48.072;16.286;2023-10-19T00:32:45;9.10;59.30
11597;DHT22;5854;48.072;16.286;2023-10-19T00:35:28;9.20;60.00
11597;DHT22;5854;48.072;16.286;2023-10-19T00:38:03;9.10;60.40
11597;DHT22;5854;48.072;16.286;2023-10-19T00:40:55;9.10;58.90
11597;DHT22;5854;48.072;16.286;2023-10-19T00:43:33;9.20;59.30
11597;DHT22;5854;48.072;16.286;2023-10-19T00:46:16;9.10;63.50
11597;DHT22;5854;48.072;16.286;2023-10-19T00:49:01;9.10;62.40
11597;DHT22;5854;48.072;16.286;2023-10-19T00:51:44;9.10;61.50
11597;DHT22;5854;48.072;16.286;2023-10-19T00:54:35;9.20;58.80
11597;DHT22;5854;48.072;16.286;2023-10-19T00:57:14;9.10;63.50
11597;DHT22;5854;48.072;16.286;2023-10-19T01:00:03;9.00;63.30
11597;DHT22;5854;48.072;16.286;2023-10-19T01:02:40;9.10;62.10
11597;DHT22;5854;48.072;16.286;2023-10-19T01:05:20;9.10;64.20
11597;DHT22;5854;48.072;16.286;2023-10-19T01:07:58;9.00;69.00
11597;DHT22;5854;48.072;16.286;2023-10-19T01:10:51;9.00;62.40
11597;DHT22;5854;48.072;16.286;2023-10-19T01:13:38;9.20;62.20
11597;DHT22;5854;48.072;16.286;2023-10-19T01:16:22;9.20;65.80
11597;DHT22;5854;48.072;16.286;2023-10-19T01:19:09;9.20;63.10
11597;DHT22;5854;48.072;16.286;2023-10-19T01:21:45;9.20;66.00
11597;DHT22;5854;48.072;16.286;2023-10-19T01:24:29;9.20;59.70
11597;DHT22;5854;48.072;16.286;2023-10-19T01:27:09;9.30;63.70
11597;DHT22;5854;48.072;16.286;2023-10-19T01:29:47;9.20;66.90
11597;DHT22;5854;48.072;16.286;2023-10-19T01:32:29;9.10;65.20
11597;DHT22;5854;48.072;16.286;2023-10-19T01:35:04;9.20;61.60
11597;DHT22;5854;48.072;16.286;2023-10-19T01:37:45;9.10;69.00
11597;DHT22;5854;48.072;16.286;2023-10-19T01:40:26;9.20;62.90
11597;DHT22;5854;48.072;16.286;2023-10-19T01:43:05;9.10;68.20
11597;DHT22;5854;48.072;16.286;2023-10-19T01:45:43;9.10;64.60
11597;DHT22;5854;48.072;16.286;2023-10-19T01:48:19;9.10;60.10
11597;DHT22;5854;48.072;16.286;2023-10-19T01:50:58;9.30;59.00
11597;DHT22;5854;48.072;16.286;2023-10-19T01:53:37;9.40;57.70
11597;DHT22;5854;48.072;16.286;2023-10-19T01:56:28;9.30;59.40
11597;DHT22;5854;48.072;16.286;2023-10-19T01:59:07;9.30;61.40
11597;DHT22;5854;48.072;16.286;2023-10-19T02:01:48;9.20;67.80
11597;DHT22;5854;48.072;16.286;2023-10-19T02:04:21;9.10;62.00
11597;DHT22;5854;48.072;16.286;2023-10-19T02:06:54;9.20;59.00
11597;DHT22;5854;48.072;16.286;2023-10-19T02:09:30;9.20;65.40
11597;DHT22;5854;48.072;16.286;2023-10-19T02:12:07;9.00;67.20
11597;DHT22;5854;48.072;16.286;2023-10-19T02:14:40;9.10;60.30
11597;DHT22;5854;48.072;16.286;2023-10-19T02:17:19;9.20;58.90
11597;DHT22;5854;48.072;16.286;2023-10-19T02:20:00;9.20;58.80
11597;DHT22;5854;48.072;16.286;2023-10-19T02:22:45;9.30;57.70
11597;DHT22;5854;48.072;16.286;2023-10-19T02:25:33;9.30;57.90
11597;DHT22;5854;48.072;16.286;2023-10-19T02:28:11;9.20;58.50
11597;DHT22;5854;48.072;16.286;2023-10-19T02:30:44;9.20;62.60
11597;DHT22;5854;48.072;16.286;2023-10-19T02:33:16;9.10;60.40
11597;DHT22;5854;48.072;16.286;2023-10-19T02:35:54;9.00;64.60
11597;DHT22;5854;48.072;16.286;2023-10-19T02:38:40;9.00;59.30
11597;DHT22;5854;48.072;16.286;2023-10-19T02:41:16;9.10;59.30
11597;DHT22;5854;48.072;16.286;2023-10-19T02:43:49;9.10;64.00
11597;DHT22;5854;48.072;16.286;2023-10-19T02:46:33;9.10;59.10
11597;DHT22;5854;48.072;16.286;2023-10-19T02:49:14;9.10;60.10
11597;DHT22;5854;48.072;16.286;2023-10-19T02:51:47;9.10;58.20
11597;DHT22;5854;48.072;16.286;2023-10-19T02:54:31;9.00;59.80
11597;DHT22;5854;48.072;16.286;2023-10-19T02:57:02;9.00;61.30
11597;DHT22;5854;48.072;16.286;2023-10-19T02:59:36;9.10;58.80
11597;DHT22;5854;48.072;16.286;2023-10-19T03:02:08;9.00;64.50
11597;DHT22;5854;48.072;16.286;2023-10-19T03:04:46;8.90;60.40
11597;DHT22;5854;48.072;16.286;2023-10-19T03:07:17;9.00;59.50
11597;DHT22;5854;48.072;16.286;2023-10-19T03:09:51;8.80;62.30
11597;DHT22;5854;48.072;16.286;2023-10-19T03:12:23;8.90;58.90
11597;DHT22;5854;48.072;16.286;2023-10-19T03:15:03;9.00;59.60
11597;DHT22;5854;48.072;16.286;2023-10-19T03:17:36;9.00;58.70
11597;DHT22;5854;48.072;16.286;2023-10-19T03:20:22;9.10;57.80
11597;DHT22;5854;48.072;16.286;2023-10-19T03:22:56;9.00;58.80
11597;DHT22;5854;48.072;16.286;2023-10-19T03:25:35;8.90;58.90
11597;DHT22;5854;48.072;16.286;2023-10-19T03:28:25;9.00;58.00
11597;DHT22;5854;48.072;16.286;2023-10-19T03:31:08;9.00;59.60
11597;DHT22;5854;48.072;16.286;2023-10-19T03:33:48;9.00;57.80
11597;DHT22;5854;48.072;16.286;2023-10-19T03:36:26;9.10;58.60
11597;DHT22;5854;48.072;16.286;2023-10-19T03:39:02;9.00;57.60
11597;DHT22;5854;48.072;16.286;2023-10-19T03:41:38;9.00;58.10
11597;DHT22;5854;48.072;16.286;2023-10-19T05:12:09;8.90;64.20
11597;DHT22;5854;48.072;16.286;2023-10-19T05:14:48;8.80;61.90
11597;DHT22;5854;48.072;16.286;2023-10-19T05:17:38;8.80;68.40
11597;DHT22;5854;48.072;16.286;2023-10-19T05:22:41;8.90;58.60
11597;DHT22;5854;48.072;16.286;2023-10-19T05:25:18;8.90;58.00
11597;DHT22;5854;48.072;16.286;2023-10-19T05:28:00;9.00;57.90
11597;DHT22;5854;48.072;16.286;2023-10-19T05:30:38;9.00;64.90
11597;DHT22;5854;48.072;16.286;2023-10-19T05:33:10;9.00;65.60
11597;DHT22;5854;48.072;16.286;2023-10-19T05:35:42;8.90;62.00
11597;DHT22;5854;48.072;16.286;2023-10-19T05:38:19;8.90;61.30
11597;DHT22;5854;48.072;16.286;2023-10-19T05:40:57;9.00;65.60
11597;DHT22;5854;48.072;16.286;2023-10-19T05:43:34;9.00;59.40
11597;DHT22;5854;48.072;16.286;2023-10-19T05:46:08;9.00;59.60
11597;DHT22;5854;48.072;16.286;2023-10-19T05:48:46;9.10;63.60
11597;DHT22;5854;48.072;16.286;2023-10-19T05:51:27;9.10;68.30
11597;DHT22;5854;48.072;16.286;2023-10-19T05:53:56;9.10;68.10
11597;DHT22;5854;48.072;16.286;2023-10-19T05:56:27;9.10;65.80
11597;DHT22;5854;48.072;16.286;2023-10-19T05:59:01;9.10;68.70
11597;DHT22;5854;48.072;16.286;2023-10-19T06:01:32;9.10;65.40
11597;DHT22;5854;48.072;16.286;2023-10-19T06:04:03;9.10;64.00
11597;DHT22;5854;48.072;16.286;2023-10-19T06:06:34;9.20;67.00
11597;DHT22;5854;48.072;16.286;2023-10-19T06:09:07;9.20;64.20
11597;DHT22;5854;48.072;16.286;2023-10-19T06:11:37;9.20;65.60
11597;DHT22;5854;48.072;16.286;2023-10-19T06:14:12;9.30;66.50
11597;DHT22;5854;48.072;16.286;2023-10-19T06:16:42;9.30;66.30
11597;DHT22;5854;48.072;16.286;2023-10-19T06:19:10;9.30;62.50
11597;DHT22;5854;48.072;16.286;2023-10-19T06:21:38;9.40;63.20
11597;DHT22;5854;48.072;16.286;2023-10-19T06:24:07;9.40;60.80
11597;DHT22;5854;48.072;16.286;2023-10-19T06:26:42;9.40;61.40
11597;DHT22;5854;48.072;16.286;2023-10-19T06:29:13;9.40;62.10
11597;DHT22;5854;48.072;16.286;2023-10-19T06:31:43;9.40;60.70
11597;DHT22;5854;48.072;16.286;2023-10-19T06:34:12;9.40;63.10
11597;DHT22;5854;48.072;16.286;2023-10-19T06:36:43;9.30;66.90
11597;DHT22;5854;48.072;16.286;2023-10-19T06:39:13;9.30;64.30
11597;DHT22;5854;48.072;16.286;2023-10-19T06:41:49;9.30;79.80
11597;DHT22;5854;48.072;16.286;2023-10-19T06:44:22;9.20;75.70
11597;DHT22;5854;48.072;16.286;2023-10-19T06:46:55;9.40;73.40
11597;DHT22;5854;48.072;16.286;2023-10-19T06:49:25;9.60;70.70
11597;DHT22;5854;48.072;16.286;2023-10-19T06:51:56;9.70;70.80
11597;DHT22;5854;48.072;16.286;2023-10-19T06:54:31;9.80;72.90
11597;DHT22;5854;48.072;16.286;2023-10-19T06:56:59;9.80;72.10
11597;DHT22;5854;48.072;16.286;2023-10-19T06:59:31;9.90;71.30
11597;DHT22;5854;48.072;16.286;2023-10-19T07:02:05;10.10;69.90
11597;DHT22;5854;48.072;16.286;2023-10-19T07:04:33;10.30;68.20
11597;DHT22;5854;48.072;16.286;2023-10-19T07:07:01;10.50;68.40
11597;DHT22;5854;48.072;16.286;2023-10-19T07:09:30;10.60;68.70
11597;DHT22;5854;48.072;16.286;2023-10-19T07:12:00;10.60;63.10
11597;DHT22;5854;48.072;16.286;2023-10-19T07:14:32;10.60;62.70
11597;DHT22;5854;48.072;16.286;2023-10-19T07:17:00;10.60;64.60
11597;DHT22;5854;48.072;16.286;2023-10-19T07:22:15;10.60;63.30
11597;DHT22;5854;48.072;16.286;2023-10-19T07:24:43;10.60;60.80
11597;DHT22;5854;48.072;16.286;2023-10-19T07:27:10;10.70;60.50
11597;DHT22;5854;48.072;16.286;2023-10-19T07:29:46;10.70;63.50
11597;DHT22;5854;48.072;16.286;2023-10-19T07:32:14;10.70;64.30
11597;DHT22;5854;48.072;16.286;2023-10-19T07:34:43;10.70;69.10
11597;DHT22;5854;48.072;16.286;2023-10-19T07:37:13;10.70;62.30
11597;DHT22;5854;48.072;16.286;2023-10-19T07:39:46;10.80;65.20
11597;DHT22;5854;48.072;16.286;2023-10-19T07:42:14;10.80;66.90
11597;DHT22;5854;48.072;16.286;2023-10-19T07:44:42;10.80;69.10
11597;DHT22;5854;48.072;16.286;2023-10-19T07:47:11;10.60;67.30
11597;DHT22;5854;48.072;16.286;2023-10-19T07:49:40;10.70;69.00
11597;DHT22;5854;48.072;16.286;2023-10-19T07:52:09;10.60;61.80
11597;DHT22;5854;48.072;16.286;2023-10-19T07:54:38;10.70;74.40
11597;DHT22;5854;48.072;16.286;2023-10-19T07:57:06;10.60;73.20
11597;DHT22;5854;48.072;16.286;2023-10-19T07:59:34;10.60;77.00
11597;DHT22;5854;48.072;16.286;2023-10-19T08:02:06;10.50;75.80
11597;DHT22;5854;48.072;16.286;2023-10-19T08:04:34;10.60;67.90
11597;DHT22;5854;48.072;16.286;2023-10-19T08:07:02;10.70;62.30
11597;DHT22;5854;48.072;16.286;2023-10-19T08:09:30;10.80;64.30
11597;DHT22;5854;48.072;16.286;2023-10-19T08:12:01;10.80;65.80
11597;DHT22;5854;48.072;16.286;2023-10-19T08:14:31;10.80;64.50
11597;DHT22;5854;48.072;16.286;2023-10-19T08:17:00;10.90;61.00
11597;DHT22;5854;48.072;16.286;2023-10-19T08:19:31;11.00;60.90
11597;DHT22;5854;48.072;16.286;2023-10-19T08:21:59;11.10;58.70
11597;DHT22;5854;48.072;16.286;2023-10-19T08:24:28;11.10;57.80
11597;DHT22;5854;48.072;16.286;2023-10-19T08:26:56;11.20;66.20
11597;DHT22;5854;48.072;16.286;2023-10-19T08:29:25;10.90;76.40
11597;DHT22;5854;48.072;16.286;2023-10-19T08:39:54;11.30;60.20
11597;DHT22;5854;48.072;16.286;2023-10-19T08:42:22;11.30;57.60
11597;DHT22;5854;48.072;16.286;2023-10-19T08:44:49;11.40;59.00
11597;DHT22;5854;48.072;16.286;2023-10-19T08:47:17;11.30;59.30
11597;DHT22;5854;48.072;16.286;2023-10-19T08:49:45;11.20;60.50
11597;DHT22;5854;48.072;16.286;2023-10-19T08:52:14;11.20;65.00
11597;DHT22;5854;48.072;16.286;2023-10-19T08:54:43;11.20;69.70
11597;DHT22;5854;48.072;16.286;2023-10-19T08:57:12;11.30;69.40
11597;DHT22;5854;48.072;16.286;2023-10-19T08:59:39;11.30;59.40
11597;DHT22;5854;48.072;16.286;2023-10-19T09:02:07;11.30;62.20
11597;DHT22;5854;48.072;16.286;2023-10-19T09:04:42;11.30;69.70
11597;DHT22;5854;48.072;16.286;2023-10-19T09:07:12;11.30;70.30
11597;DHT22;5854;48.072;16.286;2023-10-19T09:09:41;11.30;64.70
11597;DHT22;5854;48.072;16.286;2023-10-19T09:12:14;11.40;68.40
11597;DHT22;5854;48.072;16.286;2023-10-19T09:14:45;11.40;72.10
11597;DHT22;5854;48.072;16.286;2023-10-19T09:17:15;11.40;71.30
11597;DHT22;5854;48.072;16.286;2023-10-19T09:19:46;11.40;66.50
11597;DHT22;5854;48.072;16.286;2023-10-19T09:22:16;11.60;61.70
11597;DHT22;5854;48.072;16.286;2023-10-19T09:24:49;11.70;64.00
11597;DHT22;5854;48.072;16.286;2023-10-19T09:27:22;11.90;57.90
11597;DHT22;5854;48.072;16.286;2023-10-19T09:29:51;12.00;66.80
11597;DHT22;5854;48.072;16.286;2023-10-19T09:32:19;12.30;62.80
11597;DHT22;5854;48.072;16.286;2023-10-19T09:36:12;12.30;61.30
11597;DHT22;5854;48.072;16.286;2023-10-19T09:38:45;12.20;62.30
11597;DHT22;5854;48.072;16.286;2023-10-19T09:41:19;12.20;70.00
11597;DHT22;5854;48.072;16.286;2023-10-19T09:43:57;12.30;70.50
11597;DHT22;5854;48.072;16.286;2023-10-19T09:46:34;12.30;61.90
11597;DHT22;5854;48.072;16.286;2023-10-19T09:49:07;12.30;61.00
11597;DHT22;5854;48.072;16.286;2023-10-19T09:51:44;12.30;55.40
11597;DHT22;5854;48.072;16.286;2023-10-19T09:54:20;12.40;54.90
11597;DHT22;5854;48.072;16.286;2023-10-19T09:56:58;12.40;67.70
11597;DHT22;5854;48.072;16.286;2023-10-19T09:59:37;12.40;60.10
11597;DHT22;5854;48.072;16.286;2023-10-19T10:02:10;12.50;70.60
11597;DHT22;5854;48.072;16.286;2023-10-19T10:04:46;12.50;65.40
11597;DHT22;5854;48.072;16.286;2023-10-19T10:07:20;12.50;73.00
11597;DHT22;5854;48.072;16.286;2023-10-19T10:09:58;12.60;59.30
11597;DHT22;5854;48.072;16.286;2023-10-19T10:12:30;12.60;59.40
11597;DHT22;5854;48.072;16.286;2023-10-19T10:15:01;12.80;65.10
11597;DHT22;5854;48.072;16.286;2023-10-19T10:17:34;12.80;61.90
11597;DHT22;5854;48.072;16.286;2023-10-19T10:20:30;12.80;68.30
11597;DHT22;5854;48.072;16.286;2023-10-19T10:23:23;13.00;59.70
11597;DHT22;5854;48.072;16.286;2023-10-19T10:25:53;13.00;69.60
11597;DHT22;5854;48.072;16.286;2023-10-19T10:28:25;12.90;67.70
11597;DHT22;5854;48.072;16.286;2023-10-19T10:31:12;13.10;64.50
11597;DHT22;5854;48.072;16.286;2023-10-19T10:33:45;13.10;61.80
11597;DHT22;5854;48.072;16.286;2023-10-19T10:36:16;13.20;62.50
11597;DHT22;5854;48.072;16.286;2023-10-19T10:38:49;13.30;63.10
11597;DHT22;5854;48.072;16.286;2023-10-19T10:41:23;13.40;62.10
11597;DHT22;5854;48.072;16.286;2023-10-19T10:43:55;13.40;61.80
11597;DHT22;5854;48.072;16.286;2023-10-19T10:46:26;13.40;69.00
11597;DHT22;5854;48.072;16.286;2023-10-19T10:48:58;13.40;54.30
11597;DHT22;5854;48.072;16.286;2023-10-19T10:51:30;13.50;57.80
11597;DHT22;5854;48.072;16.286;2023-10-19T10:54:01;13.50;59.30
11597;DHT22;5854;48.072;16.286;2023-10-19T10:56:40;13.60;67.00
11597;DHT22;5854;48.072;16.286;2023-10-19T10:59:12;13.70;65.80
11597;DHT22;5854;48.072;16.286;2023-10-19T11:01:40;13.50;63.70
11597;DHT22;5854;48.072;16.286;2023-10-19T11:04:09;13.60;58.50
11597;DHT22;5854;48.072;16.286;2023-10-19T11:06:51;13.70;65.90
11597;DHT22;5854;48.072;16.286;2023-10-19T11:09:22;13.70;58.10
11597;DHT22;5854;48.072;16.286;2023-10-19T11:11:50;13.60;53.80
11597;DHT22;5854;48.072;16.286;2023-10-19T11:14:21;13.60;63.30
11597;DHT22;5854;48.072;16.286;2023-10-19T11:16:51;13.70;53.80
11597;DHT22;5854;48.072;16.286;2023-10-19T11:19:18;13.80;65.30
11597;DHT22;5854;48.072;16.286;2023-10-19T11:21:54;14.00;62.20
11597;DHT22;5854;48.072;16.286;2023-10-19T11:24:27;14.10;64.00
11597;DHT22;5854;48.072;16.286;2023-10-19T11:26:59;13.90;57.60
11597;DHT22;5854;48.072;16.286;2023-10-19T11:29:26;13.80;56.10
11597;DHT22;5854;48.072;16.286;2023-10-19T11:31:57;13.80;57.60
11597;DHT22;5854;48.072;16.286;2023-10-19T11:34:25;13.70;52.20
11597;DHT22;5854;48.072;16.286;2023-10-19T11:36:56;13.90;66.50
11597;DHT22;5854;48.072;16.286;2023-10-19T11:39:27;14.00;65.20
11597;DHT22;5854;48.072;16.286;2023-10-19T11:41:57;14.10;65.80
11597;DHT22;5854;48.072;16.286;2023-10-19T11:44:28;14.10;66.40
11597;DHT22;5854;48.072;16.286;2023-10-19T11:46:58;14.10;65.80
11597;DHT22;5854;48.072;16.286;2023-10-19T11:49:28;14.10;66.00
11597;DHT22;5854;48.072;16.286;2023-10-19T11:52:05;14.20;65.90
11597;DHT22;5854;48.072;16.286;2023-10-19T11:54:37;14.10;65.90
11597;DHT22;5854;48.072;16.286;2023-10-19T11:57:07;14.10;66.40
11597;DHT22;5854;48.072;16.286;2023-10-19T11:59:39;14.10;67.10
11597;DHT22;5854;48.072;16.286;2023-10-19T12:02:10;14.20;68.70
11597;DHT22;5854;48.072;16.286;2023-10-19T12:04:48;14.20;68.10
11597;DHT22;5854;48.072;16.286;2023-10-19T12:07:21;14.30;68.20
11597;DHT22;5854;48.072;16.286;2023-10-19T12:09:54;14.40;67.10
11597;DHT22;5854;48.072;16.286;2023-10-19T12:12:28;14.40;66.30
11597;DHT22;5854;48.072;16.286;2023-10-19T12:15:06;14.50;67.30
11597;DHT22;5854;48.072;16.286;2023-10-19T12:17:43;14.40;66.80
11597;DHT22;5854;48.072;16.286;2023-10-19T12:20:13;14.40;67.50
11597;DHT22;5854;48.072;16.286;2023-10-19T12:22:45;14.30;67.20
11597;DHT22;5854;48.072;16.286;2023-10-19T12:25:19;14.40;67.80
11597;DHT22;5854;48.072;16.286;2023-10-19T12:27:54;14.40;68.20
11597;DHT22;5854;48.072;16.286;2023-10-19T12:30:23;14.60;68.10
11597;DHT22;5854;48.072;16.286;2023-10-19T12:33:00;14.50;67.10
11597;DHT22;5854;48.072;16.286;2023-10-19T12:35:34;14.50;67.90
11597;DHT22;5854;48.072;16.286;2023-10-19T12:38:14;14.50;68.20
11597;DHT22;5854;48.072;16.286;2023-10-19T12:40:48;14.60;67.10
11597;DHT22;5854;48.072;16.286;2023-10-19T12:43:21;14.60;68.40
11597;DHT22;5854;48.072;16.286;2023-10-19T12:45:49;14.60;67.80
11597;DHT22;5854;48.072;16.286;2023-10-19T12:48:22;14.60;67.50
11597;DHT22;5854;48.072;16.286;2023-10-19T12:50:53;14.60;67.90
11597;DHT22;5854;48.072;16.286;2023-10-19T12:53:30;15.00;67.50
11597;DHT22;5854;48.072;16.286;2023-10-19T12:56:01;15.10;67.40
11597;DHT22;5854;48.072;16.286;2023-10-19T12:58:33;15.00;66.30
11597;DHT22;5854;48.072;16.286;2023-10-19T13:01:02;15.10;66.30
11597;DHT22;5854;48.072;16.286;2023-10-19T13:03:33;15.20;66.50
11597;DHT22;5854;48.072;16.286;2023-10-19T13:06:08;15.30;65.50
11597;DHT22;5854;48.072;16.286;2023-10-19T13:08:47;15.30;65.90
11597;DHT22;5854;48.072;16.286;2023-10-19T13:11:27;15.40;65.20
11597;DHT22;5854;48.072;16.286;2023-10-19T13:14:00;15.40;65.60
11597;DHT22;5854;48.072;16.286;2023-10-19T13:16:39;15.40;65.10
11597;DHT22;5854;48.072;16.286;2023-10-19T13:19:29;15.30;65.80
11597;DHT22;5854;48.072;16.286;2023-10-19T13:22:12;15.20;65.10
11597;DHT22;5854;48.072;16.286;2023-10-19T13:24:52;15.20;66.20
11597;DHT22;5854;48.072;16.286;2023-10-19T13:27:26;15.20;66.90
11597;DHT22;5854;48.072;16.286;2023-10-19T13:30:07;15.10;66.30
11597;DHT22;5854;48.072;16.286;2023-10-19T13:32:59;15.00;67.40
11597;DHT22;5854;48.072;16.286;2023-10-19T13:35:45;15.10;67.40
11597;DHT22;5854;48.072;16.286;2023-10-19T13:38:30;15.10;67.80
11597;DHT22;5854;48.072;16.286;2023-10-19T13:41:03;15.00;67.20
11597;DHT22;5854;48.072;16.286;2023-10-19T13:43:43;15.00;67.20
11597;DHT22;5854;48.072;16.286;2023-10-19T13:46:18;15.00;67.80
11597;DHT22;5854;48.072;16.286;2023-10-19T13:48:53;15.00;67.90
11597;DHT22;5854;48.072;16.286;2023-10-19T13:51:30;15.00;68.20
11597;DHT22;5854;48.072;16.286;2023-10-19T13:54:07;15.00;67.40
11597;DHT22;5854;48.072;16.286;2023-10-19T13:56:37;15.10;68.00
11597;DHT22;5854;48.072;16.286;2023-10-19T13:59:10;15.00;68.00
11597;DHT22;5854;48.072;16.286;2023-10-19T14:04:14;15.00;68.30
11597;DHT22;5854;48.072;16.286;2023-10-19T14:06:47;15.00;68.70
11597;DHT22;5854;48.072;16.286;2023-10-19T14:09:16;15.00;69.10
11597;DHT22;5854;48.072;16.286;2023-10-19T14:11:49;15.00;68.90
11597;DHT22;5854;48.072;16.286;2023-10-19T14:14:32;15.00;69.30
11597;DHT22;5854;48.072;16.286;2023-10-19T14:17:08;15.00;68.90
11597;DHT22;5854;48.072;16.286;2023-10-19T14:19:48;15.10;69.20
11597;DHT22;5854;48.072;16.286;2023-10-19T14:22:43;15.10;69.40
11597;DHT22;5854;48.072;16.286;2023-10-19T14:25:20;15.20;70.10
11597;DHT22;5854;48.072;16.286;2023-10-19T14:28:00;15.40;69.00
11597;DHT22;5854;48.072;16.286;2023-10-19T14:30:35;15.40;67.40
11597;DHT22;5854;48.072;16.286;2023-10-19T14:33:05;15.20;67.40
11597;DHT22;5854;48.072;16.286;2023-10-19T14:35:37;15.10;68.80
11597;DHT22;5854;48.072;16.286;2023-10-19T14:38:11;15.10;69.60
11597;DHT22;5854;48.072;16.286;2023-10-19T14:40:46;15.20;69.90
11597;DHT22;5854;48.072;16.286;2023-10-19T14:43:19;15.30;69.30
11597;DHT22;5854;48.072;16.286;2023-10-19T14:45:55;15.30;68.30
11597;DHT22;5854;48.072;16.286;2023-10-19T14:48:24;15.40;69.40
11597;DHT22;5854;48.072;16.286;2023-10-19T14:50:57;15.40;69.00
11597;DHT22;5854;48.072;16.286;2023-10-19T14:53:29;15.50;68.30
11597;DHT22;5854;48.072;16.286;2023-10-19T14:55:59;15.40;68.50
11597;DHT22;5854;48.072;16.286;2023-10-19T14:58:30;15.40;68.30
11597;DHT22;5854;48.072;16.286;2023-10-19T15:01:03;15.20;68.60
11597;DHT22;5854;48.072;16.286;2023-10-19T15:03:36;15.00;69.90
11597;DHT22;5854;48.072;16.286;2023-10-19T15:06:07;14.90;71.10
11597;DHT22;5854;48.072;16.286;2023-10-19T15:08:37;14.90;71.40
11597;DHT22;5854;48.072;16.286;2023-10-19T15:11:09;15.10;70.30
11597;DHT22;5854;48.072;16.286;2023-10-19T15:13:55;15.10;70.40
11597;DHT22;5854;48.072;16.286;2023-10-19T15:18:58;15.10;68.80
11597;DHT22;5854;48.072;16.286;2023-10-19T15:21:27;15.10;68.60
11597;DHT22;5854;48.072;16.286;2023-10-19T15:24:07;15.10;68.20
11597;DHT22;5854;48.072;16.286;2023-10-19T15:27:05;15.10;68.00
11597;DHT22;5854;48.072;16.286;2023-10-19T15:29:58;15.20;67.80
11597;DHT22;5854;48.072;16.286;2023-10-19T15:35:28;15.20;67.60
11597;DHT22;5854;48.072;16.286;2023-10-19T15:38:06;15.10;67.60
11597;DHT22;5854;48.072;16.286;2023-10-19T15:40:41;15.10;67.70
11597;DHT22;5854;48.072;16.286;2023-10-19T15:43:41;15.10;67.70
11597;DHT22;5854;48.072;16.286;2023-10-19T15:46:18;15.10;68.10
11597;DHT22;5854;48.072;16.286;2023-10-19T15:48:54;15.00;67.80
11597;DHT22;5854;48.072;16.286;2023-10-19T15:51:35;15.00;67.90
11597;DHT22;5854;48.072;16.286;2023-10-19T15:54:09;14.90;68.40
11597;DHT22;5854;48.072;16.286;2023-10-19T15:56:59;14.90;68.70
11597;DHT22;5854;48.072;16.286;2023-10-19T15:59:43;14.80;68.70
11597;DHT22;5854;48.072;16.286;2023-10-19T16:02:23;14.80;68.60
11597;DHT22;5854;48.072;16.286;2023-10-19T16:05:09;14.70;68.80
11597;DHT22;5854;48.072;16.286;2023-10-19T16:07:44;14.70;69.10
11597;DHT22;5854;48.072;16.286;2023-10-19T16:10:19;14.60;68.80
11597;DHT22;5854;48.072;16.286;2023-10-19T16:12:59;14.60;68.90
11597;DHT22;5854;48.072;16.286;2023-10-19T16:15:38;14.50;69.30
11597;DHT22;5854;48.072;16.286;2023-10-19T16:18:12;14.10;71.00
11597;DHT22;5854;48.072;16.286;2023-10-19T16:20:52;13.90;72.90
11597;DHT22;5854;48.072;16.286;2023-10-19T16:23:32;14.00;72.70
11597;DHT22;5854;48.072;16.286;2023-10-19T16:26:18;14.00;72.10
11597;DHT22;5854;48.072;16.286;2023-10-19T16:28:51;14.10;71.50
11597;DHT22;5854;48.072;16.286;2023-10-19T16:31:25;14.10;71.20
11597;DHT22;5854;48.072;16.286;2023-10-19T16:33:59;14.10;70.80
11597;DHT22;5854;48.072;16.286;2023-10-19T16:36:34;14.10;70.70
11597;DHT22;5854;48.072;16.286;2023-10-19T16:39:07;14.10;70.50
11597;DHT22;5854;48.072;16.286;2023-10-19T16:41:43;14.10;70.50
11597;DHT22;5854;48.072;16.286;2023-10-19T16:44:23;14.00;70.40
11597;DHT22;5854;48.072;16.286;2023-10-19T16:46:53;14.00;70.40
11597;DHT22;5854;48.072;16.286;2023-10-19T16:49:28;14.00;70.40
11597;DHT22;5854;48.072;16.286;2023-10-19T16:52:02;13.90;70.50
11597;DHT22;5854;48.072;16.286;2023-10-19T16:54:36;13.90;70.50
11597;DHT22;5854;48.072;16.286;2023-10-19T16:57:13;13.90;70.60
11597;DHT22;5854;48.072;16.286;2023-10-19T16:59:48;13.90;70.80
11597;DHT22;5854;48.072;16.286;2023-10-19T17:02:30;13.90;70.70
11597;DHT22;5854;48.072;16.286;2023-10-19T17:05:02;13.80;70.90
11597;DHT22;5854;48.072;16.286;2023-10-19T17:07:51;13.80;71.30
11597;DHT22;5854;48.072;16.286;2023-10-19T17:10:32;13.70;71.70
11597;DHT22;5854;48.072;16.286;2023-10-19T17:13:11;13.70;71.70
11597;DHT22;5854;48.072;16.286;2023-10-19T17:15:43;13.70;72.10
11597;DHT22;5854;48.072;16.286;2023-10-19T17:18:27;13.70;71.70
11597;DHT22;5854;48.072;16.286;2023-10-19T17:21:05;13.70;71.50
11597;DHT22;5854;48.072;16.286;2023-10-19T17:23:41;13.70;71.30
11597;DHT22;5854;48.072;16.286;2023-10-19T17:26:14;13.70;71.20
11597;DHT22;5854;48.072;16.286;2023-10-19T17:28:47;13.60;71.20
11597;DHT22;5854;48.072;16.286;2023-10-19T17:31:30;13.50;71.30
11597;DHT22;5854;48.072;16.286;2023-10-19T17:34:02;13.50;71.50
11597;DHT22;5854;48.072;16.286;2023-10-19T17:36:36;13.60;71.40
11597;DHT22;5854;48.072;16.286;2023-10-19T17:39:11;13.60;71.20
11597;DHT22;5854;48.072;16.286;2023-10-19T17:41:48;13.50;71.10
11597;DHT22;5854;48.072;16.286;2023-10-19T17:44:19;13.40;71.30
11597;DHT22;5854;48.072;16.286;2023-10-19T17:46:58;13.40;71.80
11597;DHT22;5854;48.072;16.286;2023-10-19T17:49:34;13.30;72.00
11597;DHT22;5854;48.072;16.286;2023-10-19T17:52:07;13.40;71.90
11597;DHT22;5854;48.072;16.286;2023-10-19T17:54:40;13.40;71.70
11597;DHT22;5854;48.072;16.286;2023-10-19T17:57:32;13.40;72.30
11597;DHT22;5854;48.072;16.286;2023-10-19T18:00:09;13.30;71.50
11597;DHT22;5854;48.072;16.286;2023-10-19T18:02:39;13.30;71.90
11597;DHT22;5854;48.072;16.286;2023-10-19T18:05:11;13.20;73.10
11597;DHT22;5854;48.072;16.286;2023-10-19T18:07:44;13.20;72.90
11597;DHT22;5854;48.072;16.286;2023-10-19T18:10:19;13.20;72.40
11597;DHT22;5854;48.072;16.286;2023-10-19T18:13:06;13.30;72.20
11597;DHT22;5854;48.072;16.286;2023-10-19T18:15:38;13.30;72.10